Wetterdaten: aktuell Donnerstag, 13.08.2020 21:14
Datum Zeit Temp. A. Feuchte A. Luftdruck Regen Wind UV Solar Windben
13.08.2020 21:14 24,2 C 66 % 1010,4 hPa 0,0 l/m 0,0 km/h (0 Bft) 0,0 UV-I 0 W/m 0,0 km/h (0 Bft)
13.08.2020 20:14 25,6 C 60 % 1010,1 hPa 0,0 l/m 0,0 km/h (0 Bft) 0,0 UV-I 6 W/m 0,0 km/h (0 Bft)
13.08.2020 19:14 28,0 C 49 % 1009,8 hPa 0,0 l/m 3,4 km/h (1 Bft) 0,0 UV-I 14 W/m 8,0 km/h (2 Bft)
13.08.2020 18:14 30,6 C 40 % 1009,4 hPa 0,0 l/m 1,7 km/h (1 Bft) 0,0 UV-I 307 W/m 4,8 km/h (1 Bft)
13.08.2020 17:14 31,1 C 37 % 1009,7 hPa 0,0 l/m 2,2 km/h (1 Bft) 0,0 UV-I 434 W/m 4,8 km/h (1 Bft)
13.08.2020 16:14 31,0 C 38 % 1010,2 hPa 0,0 l/m 3,6 km/h (1 Bft) 0,0 UV-I 582 W/m 8,0 km/h (2 Bft)
13.08.2020 15:14 30,3 C 40 % 1010,5 hPa 0,0 l/m 1,0 km/h (0 Bft) 2,1 UV-I 676 W/m 3,2 km/h (1 Bft)
13.08.2020 14:14 29,9 C 41 % 1011,0 hPa 0,0 l/m 2,7 km/h (1 Bft) 2,0 UV-I 739 W/m 8,0 km/h (2 Bft)
13.08.2020 13:14 28,9 C 42 % 1011,4 hPa 0,0 l/m 7,0 km/h (2 Bft) 2,2 UV-I 766 W/m 12,9 km/h (3 Bft)
13.08.2020 12:14 28,4 C 47 % 1011,6 hPa 0,0 l/m 5,4 km/h (1 Bft) 2,1 UV-I 740 W/m 11,3 km/h (2 Bft)
13.08.2020 11:14 27,8 C 51 % 1011,9 hPa 0,0 l/m 4,5 km/h (1 Bft) 1,8 UV-I 685 W/m 8,0 km/h (2 Bft)
13.08.2020 10:14 26,7 C 53 % 1011,9 hPa 0,0 l/m 3,1 km/h (1 Bft) 0,0 UV-I 573 W/m 8,0 km/h (2 Bft)
13.08.2020 09:14 25,2 C 60 % 1012,1 hPa 0,0 l/m 3,2 km/h (1 Bft) 0,0 UV-I 433 W/m 8,0 km/h (2 Bft)
13.08.2020 08:14 22,6 C 68 % 1012,2 hPa 0,0 l/m 0,9 km/h (0 Bft) 0,0 UV-I 280 W/m 4,8 km/h (1 Bft)
13.08.2020 07:14 20,8 C 72 % 1012,3 hPa 0,0 l/m 0,6 km/h (0 Bft) 0,0 UV-I 54 W/m 3,2 km/h (1 Bft)
13.08.2020 06:14 20,7 C 71 % 1012,4 hPa 0,0 l/m 0,0 km/h (0 Bft) 0,0 UV-I 15 W/m 0,0 km/h (0 Bft)
13.08.2020 05:14 20,6 C 71 % 1012,3 hPa 0,0 l/m 0,0 km/h (0 Bft) 0,0 UV-I 0 W/m 0,0 km/h (0 Bft)
13.08.2020 04:14 20,4 C 70 % 1012,6 hPa 0,0 l/m 0,9 km/h (0 Bft) 0,0 UV-I 0 W/m 3,2 km/h (1 Bft)
13.08.2020 03:14 20,3 C 68 % 1013,0 hPa 0,0 l/m 3,5 km/h (1 Bft) 0,0 UV-I 0 W/m 4,8 km/h (1 Bft)
13.08.2020 02:14 20,6 C 65 % 1013,5 hPa 0,0 l/m 2,1 km/h (1 Bft) 0,0 UV-I 0 W/m 3,2 km/h (1 Bft)
13.08.2020 01:14 20,7 C 66 % 1013,7 hPa 0,0 l/m 2,5 km/h (1 Bft) 0,0 UV-I 0 W/m 4,8 km/h (1 Bft)
13.08.2020 00:14 21,1 C 64 % 1013,9 hPa 0,0 l/m 2,5 km/h (1 Bft) 0,0 UV-I 0 W/m 4,8 km/h (1 Bft)
12.08.2020 23:14 21,4 C 63 % 1013,8 hPa 0,0 l/m 0,5 km/h (0 Bft) 0,0 UV-I 0 W/m 3,2 km/h (1 Bft)
12.08.2020 22:14 21,1 C 64 % 1014,1 hPa 0,0 l/m 0,0 km/h (0 Bft) 0,0 UV-I 0 W/m 0,0 km/h (0 Bft)
12.08.2020 22:00 21,3 C 64 % 1014,1 hPa 0,0 l/m 0,0 km/h (0 Bft) 0,0 UV-I 0 W/m 0,0 km/h (0 Bft)
_ Min-Zeit 02:44 17:16 18:22 - 22:00 - - 22:00
Minimum _ 20,3 C 36 % 1009,3 hPa - 0,0 km/h (0 Bft) - - 0,0 km/h (0 Bft)
_ Max-Zeit 16:14 06:34 22:18 22:00 11:04 15:28 13:08 11:58
Maximum _ 31,1 C 72 % 1014,2 hPa 0,0 l/m 8,1 km/h
S-SO (2 Bft)
3,0 UV-I 768 W/m 17,7 km/h
O-SO (3 Bft)
Durchschnitt _ 24,7 C 57 % 1012,0 hPa #0,0 l/m 1,6 km/h (1 Bft) 2,1 UV-I 425 W/m 4,6 km/h (1 Bft)